sensor_id;sensor_type;location;lat;lon;timestamp;P1;durP1;ratioP1;P2;durP2;ratioP2
3052;SDS011;1536;51.098;6.414;2023-03-11T00:00:37;8.65;;;3.05;;
3052;SDS011;1536;51.098;6.414;2023-03-11T00:03:06;4.78;;;2.63;;
3052;SDS011;1536;51.098;6.414;2023-03-11T00:05:35;14.18;;;3.38;;
3052;SDS011;1536;51.098;6.414;2023-03-11T00:08:06;5.88;;;2.70;;
3052;SDS011;1536;51.098;6.414;2023-03-11T00:10:35;11.18;;;3.60;;
3052;SDS011;1536;51.098;6.414;2023-03-11T00:13:04;5.05;;;2.75;;
3052;SDS011;1536;51.098;6.414;2023-03-11T00:15:32;6.85;;;3.03;;
3052;SDS011;1536;51.098;6.414;2023-03-11T00:18:00;15.85;;;2.78;;
3052;SDS011;1536;51.098;6.414;2023-03-11T00:20:28;9.27;;;2.95;;
3052;SDS011;1536;51.098;6.414;2023-03-11T00:22:58;6.45;;;2.75;;
3052;SDS011;1536;51.098;6.414;2023-03-11T00:25:27;12.00;;;3.42;;
3052;SDS011;1536;51.098;6.414;2023-03-11T00:27:55;8.80;;;3.50;;
3052;SDS011;1536;51.098;6.414;2023-03-11T00:30:22;6.47;;;3.50;;
3052;SDS011;1536;51.098;6.414;2023-03-11T00:32:49;8.00;;;2.70;;
3052;SDS011;1536;51.098;6.414;2023-03-11T00:35:18;4.78;;;2.10;;
3052;SDS011;1536;51.098;6.414;2023-03-11T00:37:46;14.82;;;3.47;;
3052;SDS011;1536;51.098;6.414;2023-03-11T00:40:16;6.55;;;2.75;;
3052;SDS011;1536;51.098;6.414;2023-03-11T00:42:44;5.20;;;3.10;;
3052;SDS011;1536;51.098;6.414;2023-03-11T00:45:12;6.72;;;3.63;;
3052;SDS011;1536;51.098;6.414;2023-03-11T00:47:39;7.47;;;2.88;;
3052;SDS011;1536;51.098;6.414;2023-03-11T00:50:07;7.10;;;3.33;;
3052;SDS011;1536;51.098;6.414;2023-03-11T00:52:36;7.47;;;3.33;;
3052;SDS011;1536;51.098;6.414;2023-03-11T00:55:03;3.47;;;2.50;;
3052;SDS011;1536;51.098;6.414;2023-03-11T00:57:32;4.43;;;2.42;;
3052;SDS011;1536;51.098;6.414;2023-03-11T00:59:58;7.40;;;2.70;;
3052;SDS011;1536;51.098;6.414;2023-03-11T01:02:25;8.25;;;3.13;;
3052;SDS011;1536;51.098;6.414;2023-03-11T01:04:52;5.90;;;3.00;;
3052;SDS011;1536;51.098;6.414;2023-03-11T01:07:19;9.27;;;3.10;;
3052;SDS011;1536;51.098;6.414;2023-03-11T01:09:46;3.78;;;2.45;;
3052;SDS011;1536;51.098;6.414;2023-03-11T01:12:13;5.47;;;2.65;;
3052;SDS011;1536;51.098;6.414;2023-03-11T01:14:41;13.15;;;3.45;;
3052;SDS011;1536;51.098;6.414;2023-03-11T01:17:07;8.18;;;3.13;;
3052;SDS011;1536;51.098;6.414;2023-03-11T01:19:36;9.43;;;2.97;;
3052;SDS011;1536;51.098;6.414;2023-03-11T01:22:02;4.40;;;2.58;;
3052;SDS011;1536;51.098;6.414;2023-03-11T01:24:29;11.15;;;3.58;;
3052;SDS011;1536;51.098;6.414;2023-03-11T01:26:56;5.68;;;2.80;;
3052;SDS011;1536;51.098;6.414;2023-03-11T01:29:23;8.38;;;3.35;;
3052;SDS011;1536;51.098;6.414;2023-03-11T01:31:51;16.35;;;2.80;;
3052;SDS011;1536;51.098;6.414;2023-03-11T01:34:18;7.30;;;2.72;;
3052;SDS011;1536;51.098;6.414;2023-03-11T01:36:45;4.93;;;2.65;;
3052;SDS011;1536;51.098;6.414;2023-03-11T01:39:12;6.38;;;3.67;;
3052;SDS011;1536;51.098;6.414;2023-03-11T01:41:38;4.97;;;2.50;;
3052;SDS011;1536;51.098;6.414;2023-03-11T01:44:05;4.00;;;2.30;;
3052;SDS011;1536;51.098;6.414;2023-03-11T01:46:34;4.63;;;2.70;;
3052;SDS011;1536;51.098;6.414;2023-03-11T01:49:04;8.88;;;2.45;;
3052;SDS011;1536;51.098;6.414;2023-03-11T01:51:37;5.63;;;2.65;;
3052;SDS011;1536;51.098;6.414;2023-03-11T01:54:06;8.13;;;2.40;;
3052;SDS011;1536;51.098;6.414;2023-03-11T01:56:36;7.07;;;2.35;;
3052;SDS011;1536;51.098;6.414;2023-03-11T01:59:04;5.05;;;2.55;;
3052;SDS011;1536;51.098;6.414;2023-03-11T02:01:33;8.38;;;3.00;;
3052;SDS011;1536;51.098;6.414;2023-03-11T02:04:01;6.80;;;2.20;;
3052;SDS011;1536;51.098;6.414;2023-03-11T02:06:29;4.20;;;2.50;;
3052;SDS011;1536;51.098;6.414;2023-03-11T02:08:58;10.05;;;2.42;;
3052;SDS011;1536;51.098;6.414;2023-03-11T02:11:26;6.13;;;2.25;;
3052;SDS011;1536;51.098;6.414;2023-03-11T02:13:55;3.10;;;2.38;;
3052;SDS011;1536;51.098;6.414;2023-03-11T02:16:27;7.20;;;2.42;;
3052;SDS011;1536;51.098;6.414;2023-03-11T02:18:54;7.57;;;2.42;;
3052;SDS011;1536;51.098;6.414;2023-03-11T02:21:25;6.85;;;2.20;;
3052;SDS011;1536;51.098;6.414;2023-03-11T02:23:55;5.45;;;2.40;;
3052;SDS011;1536;51.098;6.414;2023-03-11T02:26:29;6.22;;;2.50;;
3052;SDS011;1536;51.098;6.414;2023-03-11T02:29:02;5.43;;;2.70;;
3052;SDS011;1536;51.098;6.414;2023-03-11T02:31:33;6.45;;;2.33;;
3052;SDS011;1536;51.098;6.414;2023-03-11T02:34:02;7.00;;;3.17;;
3052;SDS011;1536;51.098;6.414;2023-03-11T02:36:32;4.85;;;2.47;;
3052;SDS011;1536;51.098;6.414;2023-03-11T02:39:00;9.90;;;2.70;;
3052;SDS011;1536;51.098;6.414;2023-03-11T02:41:28;4.45;;;2.55;;
3052;SDS011;1536;51.098;6.414;2023-03-11T02:43:58;7.18;;;2.70;;
3052;SDS011;1536;51.098;6.414;2023-03-11T02:46:28;7.45;;;2.97;;
3052;SDS011;1536;51.098;6.414;2023-03-11T02:48:54;9.45;;;2.60;;
3052;SDS011;1536;51.098;6.414;2023-03-11T02:51:22;6.22;;;2.28;;
3052;SDS011;1536;51.098;6.414;2023-03-11T02:53:50;7.00;;;2.20;;
3052;SDS011;1536;51.098;6.414;2023-03-11T02:56:19;4.70;;;2.60;;
3052;SDS011;1536;51.098;6.414;2023-03-11T02:58:46;7.53;;;2.45;;
3052;SDS011;1536;51.098;6.414;2023-03-11T03:01:13;6.40;;;2.55;;
3052;SDS011;1536;51.098;6.414;2023-03-11T03:03:41;3.95;;;2.25;;
3052;SDS011;1536;51.098;6.414;2023-03-11T03:06:08;7.97;;;2.40;;
3052;SDS011;1536;51.098;6.414;2023-03-11T03:08:34;4.28;;;2.40;;
3052;SDS011;1536;51.098;6.414;2023-03-11T03:11:01;5.07;;;2.40;;
3052;SDS011;1536;51.098;6.414;2023-03-11T03:13:28;3.90;;;2.58;;
3052;SDS011;1536;51.098;6.414;2023-03-11T03:15:56;7.38;;;2.83;;
3052;SDS011;1536;51.098;6.414;2023-03-11T03:18:23;5.25;;;2.30;;
3052;SDS011;1536;51.098;6.414;2023-03-11T03:20:51;3.55;;;2.05;;
3052;SDS011;1536;51.098;6.414;2023-03-11T03:23:18;4.38;;;2.50;;
3052;SDS011;1536;51.098;6.414;2023-03-11T03:25:45;7.20;;;2.95;;
3052;SDS011;1536;51.098;6.414;2023-03-11T03:28:12;7.50;;;3.45;;
3052;SDS011;1536;51.098;6.414;2023-03-11T03:30:39;3.03;;;2.20;;
3052;SDS011;1536;51.098;6.414;2023-03-11T03:33:07;4.78;;;3.05;;
3052;SDS011;1536;51.098;6.414;2023-03-11T03:35:40;3.20;;;2.20;;
3052;SDS011;1536;51.098;6.414;2023-03-11T03:38:10;3.95;;;2.42;;
3052;SDS011;1536;51.098;6.414;2023-03-11T03:40:37;6.88;;;2.72;;
3052;SDS011;1536;51.098;6.414;2023-03-11T03:43:04;8.43;;;2.60;;
3052;SDS011;1536;51.098;6.414;2023-03-11T03:45:31;9.38;;;2.70;;
3052;SDS011;1536;51.098;6.414;2023-03-11T03:47:57;9.82;;;2.80;;
3052;SDS011;1536;51.098;6.414;2023-03-11T03:50:24;13.30;;;2.90;;
3052;SDS011;1536;51.098;6.414;2023-03-11T03:52:51;7.00;;;2.85;;
3052;SDS011;1536;51.098;6.414;2023-03-11T03:55:19;14.77;;;3.38;;
3052;SDS011;1536;51.098;6.414;2023-03-11T03:57:46;5.22;;;2.47;;
3052;SDS011;1536;51.098;6.414;2023-03-11T04:00:13;3.63;;;2.55;;
3052;SDS011;1536;51.098;6.414;2023-03-11T04:02:40;3.40;;;2.65;;
3052;SDS011;1536;51.098;6.414;2023-03-11T04:05:08;7.38;;;2.50;;
3052;SDS011;1536;51.098;6.414;2023-03-11T04:07:35;7.05;;;3.05;;
3052;SDS011;1536;51.098;6.414;2023-03-11T04:10:02;7.65;;;2.63;;
3052;SDS011;1536;51.098;6.414;2023-03-11T04:12:31;5.03;;;2.78;;
3052;SDS011;1536;51.098;6.414;2023-03-11T04:14:57;5.22;;;2.72;;
3052;SDS011;1536;51.098;6.414;2023-03-11T04:17:24;5.22;;;2.90;;
3052;SDS011;1536;51.098;6.414;2023-03-11T04:19:51;10.13;;;3.22;;
3052;SDS011;1536;51.098;6.414;2023-03-11T04:22:18;8.05;;;3.15;;
3052;SDS011;1536;51.098;6.414;2023-03-11T04:24:44;10.05;;;3.05;;
3052;SDS011;1536;51.098;6.414;2023-03-11T04:27:11;7.03;;;2.92;;
3052;SDS011;1536;51.098;6.414;2023-03-11T04:29:39;5.55;;;2.70;;
3052;SDS011;1536;51.098;6.414;2023-03-11T04:32:06;5.72;;;2.65;;
3052;SDS011;1536;51.098;6.414;2023-03-11T04:34:33;8.30;;;3.00;;
3052;SDS011;1536;51.098;6.414;2023-03-11T04:36:59;7.63;;;3.47;;
3052;SDS011;1536;51.098;6.414;2023-03-11T04:39:26;9.98;;;3.30;;
3052;SDS011;1536;51.098;6.414;2023-03-11T04:41:53;6.95;;;3.88;;
3052;SDS011;1536;51.098;6.414;2023-03-11T04:44:20;6.10;;;2.75;;
3052;SDS011;1536;51.098;6.414;2023-03-11T04:46:48;4.60;;;3.10;;
3052;SDS011;1536;51.098;6.414;2023-03-11T04:49:14;5.05;;;2.90;;
3052;SDS011;1536;51.098;6.414;2023-03-11T04:51:41;2.92;;;2.60;;
3052;SDS011;1536;51.098;6.414;2023-03-11T04:54:08;6.50;;;2.80;;
3052;SDS011;1536;51.098;6.414;2023-03-11T04:56:35;5.63;;;2.90;;
3052;SDS011;1536;51.098;6.414;2023-03-11T04:59:01;7.57;;;3.45;;
3052;SDS011;1536;51.098;6.414;2023-03-11T05:01:28;8.25;;;3.63;;
3052;SDS011;1536;51.098;6.414;2023-03-11T05:03:56;7.55;;;2.97;;
3052;SDS011;1536;51.098;6.414;2023-03-11T05:06:23;7.85;;;3.53;;
3052;SDS011;1536;51.098;6.414;2023-03-11T05:08:50;7.35;;;3.60;;
3052;SDS011;1536;51.098;6.414;2023-03-11T05:11:16;4.93;;;3.38;;
3052;SDS011;1536;51.098;6.414;2023-03-11T05:13:43;6.20;;;3.30;;
3052;SDS011;1536;51.098;6.414;2023-03-11T05:16:10;6.88;;;3.08;;
3052;SDS011;1536;51.098;6.414;2023-03-11T05:18:36;5.38;;;3.60;;
3052;SDS011;1536;51.098;6.414;2023-03-11T05:21:05;14.07;;;3.50;;
3052;SDS011;1536;51.098;6.414;2023-03-11T05:23:31;12.70;;;3.53;;
3052;SDS011;1536;51.098;6.414;2023-03-11T05:25:58;5.03;;;2.83;;
3052;SDS011;1536;51.098;6.414;2023-03-11T05:28:25;8.68;;;3.88;;
3052;SDS011;1536;51.098;6.414;2023-03-11T05:30:51;9.68;;;3.35;;
3052;SDS011;1536;51.098;6.414;2023-03-11T05:33:18;4.68;;;2.90;;
3052;SDS011;1536;51.098;6.414;2023-03-11T05:35:45;4.60;;;3.20;;
3052;SDS011;1536;51.098;6.414;2023-03-11T05:38:13;17.02;;;3.60;;
3052;SDS011;1536;51.098;6.414;2023-03-11T05:40:40;10.35;;;3.85;;
3052;SDS011;1536;51.098;6.414;2023-03-11T05:43:06;7.38;;;3.50;;
3052;SDS011;1536;51.098;6.414;2023-03-11T05:45:33;5.18;;;3.38;;
3052;SDS011;1536;51.098;6.414;2023-03-11T05:48:00;11.93;;;3.83;;
3052;SDS011;1536;51.098;6.414;2023-03-11T05:50:26;5.75;;;3.17;;
3052;SDS011;1536;51.098;6.414;2023-03-11T05:52:53;10.10;;;3.50;;
3052;SDS011;1536;51.098;6.414;2023-03-11T05:55:21;6.00;;;3.22;;
3052;SDS011;1536;51.098;6.414;2023-03-11T05:57:49;8.77;;;3.60;;
3052;SDS011;1536;51.098;6.414;2023-03-11T06:00:16;6.90;;;3.65;;
3052;SDS011;1536;51.098;6.414;2023-03-11T06:02:44;5.90;;;3.47;;
3052;SDS011;1536;51.098;6.414;2023-03-11T06:05:11;5.00;;;3.40;;
3052;SDS011;1536;51.098;6.414;2023-03-11T06:07:37;5.80;;;3.85;;
3052;SDS011;1536;51.098;6.414;2023-03-11T06:10:04;10.75;;;3.20;;
3052;SDS011;1536;51.098;6.414;2023-03-11T06:12:33;3.38;;;3.03;;
3052;SDS011;1536;51.098;6.414;2023-03-11T06:15:01;5.10;;;3.40;;
3052;SDS011;1536;51.098;6.414;2023-03-11T06:17:28;13.25;;;4.55;;
3052;SDS011;1536;51.098;6.414;2023-03-11T06:19:54;9.20;;;3.72;;
3052;SDS011;1536;51.098;6.414;2023-03-11T06:22:21;6.20;;;2.92;;
3052;SDS011;1536;51.098;6.414;2023-03-11T06:24:48;6.40;;;4.28;;
3052;SDS011;1536;51.098;6.414;2023-03-11T06:27:14;12.88;;;4.20;;
3052;SDS011;1536;51.098;6.414;2023-03-11T06:29:43;6.55;;;3.25;;
3052;SDS011;1536;51.098;6.414;2023-03-11T06:32:09;7.38;;;4.30;;
3052;SDS011;1536;51.098;6.414;2023-03-11T06:34:36;6.72;;;4.50;;
3052;SDS011;1536;51.098;6.414;2023-03-11T06:37:03;8.30;;;4.13;;
3052;SDS011;1536;51.098;6.414;2023-03-11T06:39:29;5.93;;;4.20;;
3052;SDS011;1536;51.098;6.414;2023-03-11T06:41:56;10.15;;;3.60;;
3052;SDS011;1536;51.098;6.414;2023-03-11T06:44:23;9.15;;;4.32;;
3052;SDS011;1536;51.098;6.414;2023-03-11T06:46:51;6.40;;;3.78;;
3052;SDS011;1536;51.098;6.414;2023-03-11T06:49:17;5.50;;;3.53;;
3052;SDS011;1536;51.098;6.414;2023-03-11T06:51:44;7.13;;;3.90;;
3052;SDS011;1536;51.098;6.414;2023-03-11T06:54:11;4.38;;;3.72;;
3052;SDS011;1536;51.098;6.414;2023-03-11T06:56:37;7.22;;;3.78;;
3052;SDS011;1536;51.098;6.414;2023-03-11T06:59:04;8.23;;;4.15;;
3052;SDS011;1536;51.098;6.414;2023-03-11T07:01:31;7.40;;;3.83;;
3052;SDS011;1536;51.098;6.414;2023-03-11T07:03:59;10.68;;;5.78;;
3052;SDS011;1536;51.098;6.414;2023-03-11T07:06:26;7.47;;;4.30;;
3052;SDS011;1536;51.098;6.414;2023-03-11T07:08:53;9.95;;;3.75;;
3052;SDS011;1536;51.098;6.414;2023-03-11T07:11:20;9.82;;;4.57;;
3052;SDS011;1536;51.098;6.414;2023-03-11T07:13:48;10.65;;;4.80;;
3052;SDS011;1536;51.098;6.414;2023-03-11T07:16:16;13.55;;;5.40;;
3052;SDS011;1536;51.098;6.414;2023-03-11T07:18:45;7.53;;;4.70;;
3052;SDS011;1536;51.098;6.414;2023-03-11T07:21:15;7.05;;;4.20;;
3052;SDS011;1536;51.098;6.414;2023-03-11T07:23:43;14.60;;;4.50;;
3052;SDS011;1536;51.098;6.414;2023-03-11T07:26:10;8.55;;;4.63;;
3052;SDS011;1536;51.098;6.414;2023-03-11T07:28:38;11.95;;;4.88;;
3052;SDS011;1536;51.098;6.414;2023-03-11T07:31:06;10.60;;;4.60;;
3052;SDS011;1536;51.098;6.414;2023-03-11T07:33:33;5.10;;;4.05;;
3052;SDS011;1536;51.098;6.414;2023-03-11T07:36:03;6.07;;;3.97;;
3052;SDS011;1536;51.098;6.414;2023-03-11T07:41:00;8.15;;;4.53;;
3052;SDS011;1536;51.098;6.414;2023-03-11T07:43:27;11.73;;;4.07;;
3052;SDS011;1536;51.098;6.414;2023-03-11T07:46:01;10.52;;;4.95;;
3052;SDS011;1536;51.098;6.414;2023-03-11T07:48:32;7.72;;;4.75;;
3052;SDS011;1536;51.098;6.414;2023-03-11T07:51:00;10.27;;;5.00;;
3052;SDS011;1536;51.098;6.414;2023-03-11T07:53:28;7.90;;;4.43;;
3052;SDS011;1536;51.098;6.414;2023-03-11T07:55:56;10.70;;;4.53;;
3052;SDS011;1536;51.098;6.414;2023-03-11T07:58:23;10.43;;;5.30;;
3052;SDS011;1536;51.098;6.414;2023-03-11T08:00:51;11.32;;;4.93;;
3052;SDS011;1536;51.098;6.414;2023-03-11T08:03:20;10.52;;;5.03;;
3052;SDS011;1536;51.098;6.414;2023-03-11T08:05:47;14.18;;;4.85;;
3052;SDS011;1536;51.098;6.414;2023-03-11T08:08:13;10.23;;;4.90;;
3052;SDS011;1536;51.098;6.414;2023-03-11T08:10:40;21.40;;;5.68;;
3052;SDS011;1536;51.098;6.414;2023-03-11T08:13:08;10.48;;;4.60;;
3052;SDS011;1536;51.098;6.414;2023-03-11T08:15:35;11.57;;;4.82;;
3052;SDS011;1536;51.098;6.414;2023-03-11T08:18:02;14.77;;;6.10;;
3052;SDS011;1536;51.098;6.414;2023-03-11T08:20:29;7.60;;;4.75;;
3052;SDS011;1536;51.098;6.414;2023-03-11T08:22:56;8.93;;;4.75;;
3052;SDS011;1536;51.098;6.414;2023-03-11T08:25:22;5.85;;;4.93;;
3052;SDS011;1536;51.098;6.414;2023-03-11T08:27:49;8.00;;;5.13;;
3052;SDS011;1536;51.098;6.414;2023-03-11T08:30:18;6.20;;;3.85;;
3052;SDS011;1536;51.098;6.414;2023-03-11T08:32:44;12.32;;;4.63;;
3052;SDS011;1536;51.098;6.414;2023-03-11T08:35:13;11.80;;;4.75;;
3052;SDS011;1536;51.098;6.414;2023-03-11T08:37:39;6.60;;;4.10;;
3052;SDS011;1536;51.098;6.414;2023-03-11T08:40:07;7.00;;;3.83;;
3052;SDS011;1536;51.098;6.414;2023-03-11T08:42:35;8.07;;;4.10;;
3052;SDS011;1536;51.098;6.414;2023-03-11T08:45:01;7.10;;;4.43;;
3052;SDS011;1536;51.098;6.414;2023-03-11T08:47:33;15.63;;;4.70;;
3052;SDS011;1536;51.098;6.414;2023-03-11T08:50:00;8.38;;;4.30;;
3052;SDS011;1536;51.098;6.414;2023-03-11T08:52:27;9.75;;;5.15;;
3052;SDS011;1536;51.098;6.414;2023-03-11T08:54:53;7.53;;;4.82;;
3052;SDS011;1536;51.098;6.414;2023-03-11T08:57:20;7.13;;;3.70;;
3052;SDS011;1536;51.098;6.414;2023-03-11T08:59:47;15.30;;;3.80;;
3052;SDS011;1536;51.098;6.414;2023-03-11T09:02:13;12.93;;;4.05;;
3052;SDS011;1536;51.098;6.414;2023-03-11T09:04:41;5.95;;;3.70;;
3052;SDS011;1536;51.098;6.414;2023-03-11T09:07:09;6.88;;;3.90;;
3052;SDS011;1536;51.098;6.414;2023-03-11T09:09:36;8.98;;;4.90;;
3052;SDS011;1536;51.098;6.414;2023-03-11T09:12:03;7.50;;;3.67;;
3052;SDS011;1536;51.098;6.414;2023-03-11T09:14:31;3.13;;;2.83;;
3052;SDS011;1536;51.098;6.414;2023-03-11T09:16:59;5.05;;;3.30;;
3052;SDS011;1536;51.098;6.414;2023-03-11T09:19:26;7.88;;;3.33;;
3052;SDS011;1536;51.098;6.414;2023-03-11T09:21:54;7.93;;;3.95;;
3052;SDS011;1536;51.098;6.414;2023-03-11T09:24:20;6.47;;;3.85;;
3052;SDS011;1536;51.098;6.414;2023-03-11T09:26:47;8.82;;;3.58;;
3052;SDS011;1536;51.098;6.414;2023-03-11T09:29:14;6.65;;;3.83;;
3052;SDS011;1536;51.098;6.414;2023-03-11T09:31:41;4.75;;;3.38;;
3052;SDS011;1536;51.098;6.414;2023-03-11T09:34:07;5.68;;;2.78;;
3052;SDS011;1536;51.098;6.414;2023-03-11T09:36:36;2.65;;;2.30;;
3052;SDS011;1536;51.098;6.414;2023-03-11T09:39:04;9.73;;;2.78;;
3052;SDS011;1536;51.098;6.414;2023-03-11T09:41:33;7.18;;;3.35;;
3052;SDS011;1536;51.098;6.414;2023-03-11T09:44:10;6.18;;;2.60;;
3052;SDS011;1536;51.098;6.414;2023-03-11T09:46:53;5.85;;;3.33;;
3052;SDS011;1536;51.098;6.414;2023-03-11T09:49:38;8.27;;;3.72;;
3052;SDS011;1536;51.098;6.414;2023-03-11T09:52:15;6.82;;;2.75;;
3052;SDS011;1536;51.098;6.414;2023-03-11T09:54:48;4.32;;;1.75;;
3052;SDS011;1536;51.098;6.414;2023-03-11T09:57:18;3.05;;;1.70;;
3052;SDS011;1536;51.098;6.414;2023-03-11T09:59:47;12.75;;;2.03;;
3052;SDS011;1536;51.098;6.414;2023-03-11T10:02:16;3.67;;;1.98;;
3052;SDS011;1536;51.098;6.414;2023-03-11T10:04:48;3.05;;;2.20;;
3052;SDS011;1536;51.098;6.414;2023-03-11T10:07:18;2.33;;;1.50;;
3052;SDS011;1536;51.098;6.414;2023-03-11T10:09:51;3.08;;;1.77;;
3052;SDS011;1536;51.098;6.414;2023-03-11T10:12:23;9.43;;;1.75;;
3052;SDS011;1536;51.098;6.414;2023-03-11T10:15:03;7.18;;;1.77;;
3052;SDS011;1536;51.098;6.414;2023-03-11T10:18:02;3.28;;;1.70;;
3052;SDS011;1536;51.098;6.414;2023-03-11T10:20:36;8.02;;;2.40;;
3052;SDS011;1536;51.098;6.414;2023-03-11T10:23:14;3.88;;;2.17;;
3052;SDS011;1536;51.098;6.414;2023-03-11T10:25:53;3.58;;;1.50;;
3052;SDS011;1536;51.098;6.414;2023-03-11T10:28:26;4.97;;;1.90;;
3052;SDS011;1536;51.098;6.414;2023-03-11T10:31:00;2.30;;;2.05;;
3052;SDS011;1536;51.098;6.414;2023-03-11T10:33:34;1.80;;;1.55;;
3052;SDS011;1536;51.098;6.414;2023-03-11T10:36:08;4.72;;;2.00;;
3052;SDS011;1536;51.098;6.414;2023-03-11T10:38:39;3.13;;;1.98;;
3052;SDS011;1536;51.098;6.414;2023-03-11T10:41:13;5.68;;;2.00;;
3052;SDS011;1536;51.098;6.414;2023-03-11T10:43:45;2.58;;;1.85;;
3052;SDS011;1536;51.098;6.414;2023-03-11T10:46:18;2.85;;;1.42;;
3052;SDS011;1536;51.098;6.414;2023-03-11T10:48:46;2.08;;;1.40;;
3052;SDS011;1536;51.098;6.414;2023-03-11T10:51:13;1.77;;;1.30;;
3052;SDS011;1536;51.098;6.414;2023-03-11T10:53:47;6.15;;;1.85;;
3052;SDS011;1536;51.098;6.414;2023-03-11T10:56:30;4.80;;;2.03;;
3052;SDS011;1536;51.098;6.414;2023-03-11T10:58:58;6.00;;;1.55;;
3052;SDS011;1536;51.098;6.414;2023-03-11T11:01:27;6.35;;;1.80;;
3052;SDS011;1536;51.098;6.414;2023-03-11T11:03:55;2.75;;;1.75;;
3052;SDS011;1536;51.098;6.414;2023-03-11T11:06:25;1.67;;;1.58;;
3052;SDS011;1536;51.098;6.414;2023-03-11T11:12:00;4.07;;;1.85;;
3052;SDS011;1536;51.098;6.414;2023-03-11T11:14:40;5.05;;;1.60;;
3052;SDS011;1536;51.098;6.414;2023-03-11T11:17:13;1.58;;;1.40;;
3052;SDS011;1536;51.098;6.414;2023-03-11T11:19:45;3.67;;;1.70;;
3052;SDS011;1536;51.098;6.414;2023-03-11T11:22:14;6.55;;;1.98;;
3052;SDS011;1536;51.098;6.414;2023-03-11T11:24:43;7.18;;;2.50;;
3052;SDS011;1536;51.098;6.414;2023-03-11T11:27:16;3.10;;;1.80;;
3052;SDS011;1536;51.098;6.414;2023-03-11T11:29:45;2.58;;;1.50;;
3052;SDS011;1536;51.098;6.414;2023-03-11T11:32:15;3.13;;;1.77;;
3052;SDS011;1536;51.098;6.414;2023-03-11T11:34:52;4.13;;;1.85;;
3052;SDS011;1536;51.098;6.414;2023-03-11T11:37:22;7.72;;;1.77;;
3052;SDS011;1536;51.098;6.414;2023-03-11T11:39:52;3.58;;;1.65;;
3052;SDS011;1536;51.098;6.414;2023-03-11T11:42:22;2.30;;;1.40;;
3052;SDS011;1536;51.098;6.414;2023-03-11T11:44:52;3.05;;;1.80;;
3052;SDS011;1536;51.098;6.414;2023-03-11T11:47:23;3.60;;;1.85;;
3052;SDS011;1536;51.098;6.414;2023-03-11T11:49:55;6.75;;;1.80;;
3052;SDS011;1536;51.098;6.414;2023-03-11T11:52:26;3.50;;;1.60;;
3052;SDS011;1536;51.098;6.414;2023-03-11T11:54:56;4.53;;;1.98;;
3052;SDS011;1536;51.098;6.414;2023-03-11T11:57:28;4.70;;;1.70;;
3052;SDS011;1536;51.098;6.414;2023-03-11T11:59:55;2.72;;;1.80;;
3052;SDS011;1536;51.098;6.414;2023-03-11T12:02:26;4.50;;;2.58;;
3052;SDS011;1536;51.098;6.414;2023-03-11T12:05:07;12.73;;;2.22;;
3052;SDS011;1536;51.098;6.414;2023-03-11T12:07:40;4.25;;;2.40;;
3052;SDS011;1536;51.098;6.414;2023-03-11T12:10:17;2.45;;;1.73;;
3052;SDS011;1536;51.098;6.414;2023-03-11T12:12:55;5.75;;;1.80;;
3052;SDS011;1536;51.098;6.414;2023-03-11T12:15:41;6.38;;;1.77;;
3052;SDS011;1536;51.098;6.414;2023-03-11T12:18:17;1.90;;;1.55;;
3052;SDS011;1536;51.098;6.414;2023-03-11T12:20:50;5.63;;;2.17;;
3052;SDS011;1536;51.098;6.414;2023-03-11T12:23:19;3.72;;;1.88;;
3052;SDS011;1536;51.098;6.414;2023-03-11T12:26:03;1.90;;;1.50;;
3052;SDS011;1536;51.098;6.414;2023-03-11T12:28:41;3.75;;;1.58;;
3052;SDS011;1536;51.098;6.414;2023-03-11T12:31:13;2.20;;;1.45;;
3052;SDS011;1536;51.098;6.414;2023-03-11T12:33:40;1.83;;;1.60;;
3052;SDS011;1536;51.098;6.414;2023-03-11T12:36:19;4.50;;;1.70;;
3052;SDS011;1536;51.098;6.414;2023-03-11T12:38:48;5.07;;;1.90;;
3052;SDS011;1536;51.098;6.414;2023-03-11T12:41:25;3.67;;;1.55;;
3052;SDS011;1536;51.098;6.414;2023-03-11T12:44:00;4.50;;;1.70;;
3052;SDS011;1536;51.098;6.414;2023-03-11T12:49:27;6.35;;;1.95;;
3052;SDS011;1536;51.098;6.414;2023-03-11T12:54:46;2.97;;;2.00;;
3052;SDS011;1536;51.098;6.414;2023-03-11T13:00:16;5.82;;;2.03;;
3052;SDS011;1536;51.098;6.414;2023-03-11T13:02:55;3.30;;;1.75;;
3052;SDS011;1536;51.098;6.414;2023-03-11T13:05:43;1.80;;;1.67;;
3052;SDS011;1536;51.098;6.414;2023-03-11T13:08:18;2.85;;;1.67;;
3052;SDS011;1536;51.098;6.414;2023-03-11T13:10:47;5.35;;;1.95;;
3052;SDS011;1536;51.098;6.414;2023-03-11T13:13:20;4.03;;;2.10;;
3052;SDS011;1536;51.098;6.414;2023-03-11T13:19:07;6.00;;;1.63;;
3052;SDS011;1536;51.098;6.414;2023-03-11T13:21:59;3.08;;;1.88;;
3052;SDS011;1536;51.098;6.414;2023-03-11T13:24:39;4.72;;;1.58;;
3052;SDS011;1536;51.098;6.414;2023-03-11T13:27:16;2.50;;;1.85;;
3052;SDS011;1536;51.098;6.414;2023-03-11T13:29:55;3.85;;;1.90;;
3052;SDS011;1536;51.098;6.414;2023-03-11T13:32:41;5.28;;;2.28;;
3052;SDS011;1536;51.098;6.414;2023-03-11T13:35:26;1.60;;;1.50;;
3052;SDS011;1536;51.098;6.414;2023-03-11T13:38:10;4.50;;;1.80;;
3052;SDS011;1536;51.098;6.414;2023-03-11T13:40:45;4.03;;;2.30;;
3052;SDS011;1536;51.098;6.414;2023-03-11T13:43:13;3.45;;;2.20;;
3052;SDS011;1536;51.098;6.414;2023-03-11T13:45:44;6.30;;;2.30;;
3052;SDS011;1536;51.098;6.414;2023-03-11T13:48:16;5.57;;;2.25;;
3052;SDS011;1536;51.098;6.414;2023-03-11T13:50:48;5.53;;;2.10;;
3052;SDS011;1536;51.098;6.414;2023-03-11T13:53:19;6.20;;;2.95;;
3052;SDS011;1536;51.098;6.414;2023-03-11T13:55:49;3.20;;;1.95;;
3052;SDS011;1536;51.098;6.414;2023-03-11T13:58:19;3.35;;;2.13;;
3052;SDS011;1536;51.098;6.414;2023-03-11T14:00:48;6.55;;;2.35;;
3052;SDS011;1536;51.098;6.414;2023-03-11T14:03:17;6.45;;;1.75;;
3052;SDS011;1536;51.098;6.414;2023-03-11T14:05:48;6.22;;;2.55;;
3052;SDS011;1536;51.098;6.414;2023-03-11T14:08:21;2.10;;;1.90;;
3052;SDS011;1536;51.098;6.414;2023-03-11T14:10:51;5.03;;;2.20;;
3052;SDS011;1536;51.098;6.414;2023-03-11T14:13:19;2.50;;;1.83;;
3052;SDS011;1536;51.098;6.414;2023-03-11T14:15:50;5.35;;;2.25;;
3052;SDS011;1536;51.098;6.414;2023-03-11T14:18:26;5.60;;;2.17;;
3052;SDS011;1536;51.098;6.414;2023-03-11T14:20:56;6.25;;;2.20;;
3052;SDS011;1536;51.098;6.414;2023-03-11T14:23:24;4.82;;;2.70;;
3052;SDS011;1536;51.098;6.414;2023-03-11T14:25:58;7.53;;;2.58;;
3052;SDS011;1536;51.098;6.414;2023-03-11T14:28:31;3.92;;;2.50;;
3052;SDS011;1536;51.098;6.414;2023-03-11T14:31:01;6.88;;;2.70;;
3052;SDS011;1536;51.098;6.414;2023-03-11T14:33:28;3.97;;;2.45;;
3052;SDS011;1536;51.098;6.414;2023-03-11T14:35:57;4.53;;;2.33;;
3052;SDS011;1536;51.098;6.414;2023-03-11T14:38:26;4.22;;;2.50;;
3052;SDS011;1536;51.098;6.414;2023-03-11T14:40:54;2.50;;;1.85;;
3052;SDS011;1536;51.098;6.414;2023-03-11T14:43:23;2.78;;;2.10;;
3052;SDS011;1536;51.098;6.414;2023-03-11T14:45:50;5.40;;;2.40;;
3052;SDS011;1536;51.098;6.414;2023-03-11T14:48:19;3.33;;;2.40;;
3052;SDS011;1536;51.098;6.414;2023-03-11T14:50:50;7.43;;;2.40;;
3052;SDS011;1536;51.098;6.414;2023-03-11T14:53:20;3.65;;;2.22;;
3052;SDS011;1536;51.098;6.414;2023-03-11T14:55:53;2.55;;;2.33;;
3052;SDS011;1536;51.098;6.414;2023-03-11T14:58:22;5.57;;;2.10;;
3052;SDS011;1536;51.098;6.414;2023-03-11T15:00:57;7.05;;;2.63;;
3052;SDS011;1536;51.098;6.414;2023-03-11T15:03:28;3.55;;;2.50;;
3052;SDS011;1536;51.098;6.414;2023-03-11T15:05:57;3.85;;;2.10;;
3052;SDS011;1536;51.098;6.414;2023-03-11T15:08:28;9.55;;;2.13;;
3052;SDS011;1536;51.098;6.414;2023-03-11T15:11:01;3.83;;;2.10;;
3052;SDS011;1536;51.098;6.414;2023-03-11T15:13:30;5.03;;;2.25;;
3052;SDS011;1536;51.098;6.414;2023-03-11T15:15:58;4.53;;;2.17;;
3052;SDS011;1536;51.098;6.414;2023-03-11T15:18:27;3.13;;;2.08;;
3052;SDS011;1536;51.098;6.414;2023-03-11T15:21:00;3.47;;;2.80;;
3052;SDS011;1536;51.098;6.414;2023-03-11T15:23:40;3.22;;;2.30;;
3052;SDS011;1536;51.098;6.414;2023-03-11T15:26:18;8.57;;;2.60;;
3052;SDS011;1536;51.098;6.414;2023-03-11T15:28:51;3.17;;;2.20;;
3052;SDS011;1536;51.098;6.414;2023-03-11T15:31:31;5.57;;;2.70;;
3052;SDS011;1536;51.098;6.414;2023-03-11T15:34:06;3.15;;;2.00;;
3052;SDS011;1536;51.098;6.414;2023-03-11T15:36:35;3.33;;;2.20;;
3052;SDS011;1536;51.098;6.414;2023-03-11T15:39:12;5.10;;;1.90;;
3052;SDS011;1536;51.098;6.414;2023-03-11T15:41:41;4.28;;;2.38;;
3052;SDS011;1536;51.098;6.414;2023-03-11T15:44:22;4.75;;;2.60;;